sensor_id;sensor_type;location;lat;lon;timestamp;temperature;humidity
42743;DHT22;28397;44.552;-0.848;2023-03-14T00:01:19;12.10;99.90
42743;DHT22;28397;44.552;-0.848;2023-03-14T00:03:47;12.20;99.90
42743;DHT22;28397;44.552;-0.848;2023-03-14T00:06:14;12.10;99.90
42743;DHT22;28397;44.552;-0.848;2023-03-14T00:08:40;12.10;99.90
42743;DHT22;28397;44.552;-0.848;2023-03-14T00:11:12;12.00;99.90
42743;DHT22;28397;44.552;-0.848;2023-03-14T00:13:38;12.10;99.90
42743;DHT22;28397;44.552;-0.848;2023-03-14T00:16:06;12.20;99.90
42743;DHT22;28397;44.552;-0.848;2023-03-14T00:18:33;12.30;99.90
42743;DHT22;28397;44.552;-0.848;2023-03-14T00:21:00;12.20;99.90
42743;DHT22;28397;44.552;-0.848;2023-03-14T00:23:28;12.20;99.90
42743;DHT22;28397;44.552;-0.848;2023-03-14T00:25:57;12.20;99.90
42743;DHT22;28397;44.552;-0.848;2023-03-14T00:28:23;12.30;99.90
42743;DHT22;28397;44.552;-0.848;2023-03-14T00:30:48;12.20;99.90
42743;DHT22;28397;44.552;-0.848;2023-03-14T00:33:14;12.00;99.90
42743;DHT22;28397;44.552;-0.848;2023-03-14T00:35:40;12.00;99.90
42743;DHT22;28397;44.552;-0.848;2023-03-14T00:38:05;12.10;99.90
42743;DHT22;28397;44.552;-0.848;2023-03-14T00:40:31;12.20;99.90
42743;DHT22;28397;44.552;-0.848;2023-03-14T00:42:57;12.10;99.90
42743;DHT22;28397;44.552;-0.848;2023-03-14T00:45:22;12.00;99.90
42743;DHT22;28397;44.552;-0.848;2023-03-14T00:47:48;12.10;99.90
42743;DHT22;28397;44.552;-0.848;2023-03-14T00:50:14;12.30;99.90
42743;DHT22;28397;44.552;-0.848;2023-03-14T00:52:40;12.20;99.90
42743;DHT22;28397;44.552;-0.848;2023-03-14T00:55:06;12.10;99.90
42743;DHT22;28397;44.552;-0.848;2023-03-14T00:57:31;12.10;99.90
42743;DHT22;28397;44.552;-0.848;2023-03-14T00:59:57;12.10;99.90
42743;DHT22;28397;44.552;-0.848;2023-03-14T01:02:23;12.00;99.90
42743;DHT22;28397;44.552;-0.848;2023-03-14T01:04:49;11.90;99.90
42743;DHT22;28397;44.552;-0.848;2023-03-14T01:07:15;12.10;99.90
42743;DHT22;28397;44.552;-0.848;2023-03-14T01:09:41;11.80;99.90
42743;DHT22;28397;44.552;-0.848;2023-03-14T01:12:07;11.80;99.90
42743;DHT22;28397;44.552;-0.848;2023-03-14T01:14:32;11.80;99.90
42743;DHT22;28397;44.552;-0.848;2023-03-14T01:16:58;12.00;99.90
42743;DHT22;28397;44.552;-0.848;2023-03-14T01:19:28;11.60;99.90
42743;DHT22;28397;44.552;-0.848;2023-03-14T01:21:54;11.80;99.90
42743;DHT22;28397;44.552;-0.848;2023-03-14T01:24:19;11.50;99.90
42743;DHT22;28397;44.552;-0.848;2023-03-14T01:26:46;11.60;99.90
42743;DHT22;28397;44.552;-0.848;2023-03-14T01:29:11;11.60;99.90
42743;DHT22;28397;44.552;-0.848;2023-03-14T01:31:37;11.60;99.90
42743;DHT22;28397;44.552;-0.848;2023-03-14T01:34:03;11.80;99.90
42743;DHT22;28397;44.552;-0.848;2023-03-14T01:36:29;11.50;99.90
42743;DHT22;28397;44.552;-0.848;2023-03-14T01:38:55;11.60;99.90
42743;DHT22;28397;44.552;-0.848;2023-03-14T01:41:23;11.70;99.90
42743;DHT22;28397;44.552;-0.848;2023-03-14T01:43:49;11.60;99.90
42743;DHT22;28397;44.552;-0.848;2023-03-14T01:52:00;11.80;99.90
42743;DHT22;28397;44.552;-0.848;2023-03-14T01:54:34;12.00;99.90
42743;DHT22;28397;44.552;-0.848;2023-03-14T02:00:11;11.80;99.90
42743;DHT22;28397;44.552;-0.848;2023-03-14T02:02:51;11.90;99.90
42743;DHT22;28397;44.552;-0.848;2023-03-14T02:05:23;11.80;99.90
42743;DHT22;28397;44.552;-0.848;2023-03-14T02:07:55;11.70;99.90
42743;DHT22;28397;44.552;-0.848;2023-03-14T02:10:32;11.70;99.90
42743;DHT22;28397;44.552;-0.848;2023-03-14T02:13:02;11.60;99.90
42743;DHT22;28397;44.552;-0.848;2023-03-14T02:15:28;11.60;99.90
42743;DHT22;28397;44.552;-0.848;2023-03-14T02:17:55;11.40;99.90
42743;DHT22;28397;44.552;-0.848;2023-03-14T02:20:28;11.30;99.90
42743;DHT22;28397;44.552;-0.848;2023-03-14T02:22:55;11.30;99.90
42743;DHT22;28397;44.552;-0.848;2023-03-14T02:25:47;11.30;99.90
42743;DHT22;28397;44.552;-0.848;2023-03-14T02:28:14;11.20;99.90
42743;DHT22;28397;44.552;-0.848;2023-03-14T02:30:40;11.20;99.90
42743;DHT22;28397;44.552;-0.848;2023-03-14T02:33:12;11.20;99.90
42743;DHT22;28397;44.552;-0.848;2023-03-14T02:36:05;11.20;99.90
42743;DHT22;28397;44.552;-0.848;2023-03-14T02:41:14;11.30;99.90
42743;DHT22;28397;44.552;-0.848;2023-03-14T02:43:40;11.30;99.90
42743;DHT22;28397;44.552;-0.848;2023-03-14T02:46:08;11.40;99.90
42743;DHT22;28397;44.552;-0.848;2023-03-14T02:51:24;11.50;99.90
42743;DHT22;28397;44.552;-0.848;2023-03-14T02:53:51;11.60;99.90
42743;DHT22;28397;44.552;-0.848;2023-03-14T02:56:17;11.40;99.90
42743;DHT22;28397;44.552;-0.848;2023-03-14T02:58:42;11.50;99.90
42743;DHT22;28397;44.552;-0.848;2023-03-14T03:01:08;11.50;99.90
42743;DHT22;28397;44.552;-0.848;2023-03-14T03:03:34;11.60;99.90
42743;DHT22;28397;44.552;-0.848;2023-03-14T03:06:00;11.50;99.90
42743;DHT22;28397;44.552;-0.848;2023-03-14T03:08:27;11.50;99.90
42743;DHT22;28397;44.552;-0.848;2023-03-14T03:10:53;11.60;99.90
42743;DHT22;28397;44.552;-0.848;2023-03-14T03:13:19;11.60;99.90
42743;DHT22;28397;44.552;-0.848;2023-03-14T03:15:45;11.60;99.90
42743;DHT22;28397;44.552;-0.848;2023-03-14T03:18:11;11.50;99.90
42743;DHT22;28397;44.552;-0.848;2023-03-14T03:20:37;11.40;99.90
42743;DHT22;28397;44.552;-0.848;2023-03-14T03:23:03;11.40;99.90
42743;DHT22;28397;44.552;-0.848;2023-03-14T03:25:29;11.40;99.90
42743;DHT22;28397;44.552;-0.848;2023-03-14T03:27:55;11.30;99.90
42743;DHT22;28397;44.552;-0.848;2023-03-14T03:30:21;11.10;99.90
42743;DHT22;28397;44.552;-0.848;2023-03-14T03:32:48;11.10;99.90
42743;DHT22;28397;44.552;-0.848;2023-03-14T03:35:13;11.00;99.90
42743;DHT22;28397;44.552;-0.848;2023-03-14T03:37:39;10.90;99.90
42743;DHT22;28397;44.552;-0.848;2023-03-14T03:40:06;10.90;99.90
42743;DHT22;28397;44.552;-0.848;2023-03-14T03:42:33;10.80;99.90
42743;DHT22;28397;44.552;-0.848;2023-03-14T03:45:00;10.90;99.90
42743;DHT22;28397;44.552;-0.848;2023-03-14T03:47:25;10.80;99.90
42743;DHT22;28397;44.552;-0.848;2023-03-14T03:49:51;10.90;99.90
42743;DHT22;28397;44.552;-0.848;2023-03-14T03:52:17;10.90;99.90
42743;DHT22;28397;44.552;-0.848;2023-03-14T03:54:43;10.90;99.90
42743;DHT22;28397;44.552;-0.848;2023-03-14T03:57:08;10.80;99.90
42743;DHT22;28397;44.552;-0.848;2023-03-14T03:59:34;11.00;99.90
42743;DHT22;28397;44.552;-0.848;2023-03-14T04:02:00;10.80;99.90
42743;DHT22;28397;44.552;-0.848;2023-03-14T04:04:25;10.60;99.90
42743;DHT22;28397;44.552;-0.848;2023-03-14T04:06:51;10.80;99.90
42743;DHT22;28397;44.552;-0.848;2023-03-14T04:09:17;10.60;99.90
42743;DHT22;28397;44.552;-0.848;2023-03-14T04:11:43;10.90;99.90
42743;DHT22;28397;44.552;-0.848;2023-03-14T04:14:08;10.90;99.90
42743;DHT22;28397;44.552;-0.848;2023-03-14T04:16:34;10.90;99.90
42743;DHT22;28397;44.552;-0.848;2023-03-14T04:19:01;10.90;99.90
42743;DHT22;28397;44.552;-0.848;2023-03-14T04:21:26;10.90;99.90
42743;DHT22;28397;44.552;-0.848;2023-03-14T04:23:52;11.00;99.90
42743;DHT22;28397;44.552;-0.848;2023-03-14T04:26:18;10.90;99.90
42743;DHT22;28397;44.552;-0.848;2023-03-14T04:28:44;10.50;99.90
42743;DHT22;28397;44.552;-0.848;2023-03-14T04:31:11;10.50;99.90
42743;DHT22;28397;44.552;-0.848;2023-03-14T04:33:38;10.40;99.90
42743;DHT22;28397;44.552;-0.848;2023-03-14T04:36:05;10.50;99.90
42743;DHT22;28397;44.552;-0.848;2023-03-14T04:38:31;10.50;99.90
42743;DHT22;28397;44.552;-0.848;2023-03-14T04:40:57;10.60;99.90
42743;DHT22;28397;44.552;-0.848;2023-03-14T04:43:23;10.60;99.90
42743;DHT22;28397;44.552;-0.848;2023-03-14T04:45:50;10.40;99.90
42743;DHT22;28397;44.552;-0.848;2023-03-14T04:48:16;10.40;99.90
42743;DHT22;28397;44.552;-0.848;2023-03-14T04:50:41;10.40;99.90
42743;DHT22;28397;44.552;-0.848;2023-03-14T04:53:07;10.40;99.90
42743;DHT22;28397;44.552;-0.848;2023-03-14T04:55:33;10.40;99.90
42743;DHT22;28397;44.552;-0.848;2023-03-14T04:57:59;10.40;99.90
42743;DHT22;28397;44.552;-0.848;2023-03-14T05:00:24;10.30;99.90
42743;DHT22;28397;44.552;-0.848;2023-03-14T05:02:50;10.40;99.90
42743;DHT22;28397;44.552;-0.848;2023-03-14T05:05:16;10.40;99.90
42743;DHT22;28397;44.552;-0.848;2023-03-14T05:07:42;10.30;99.90
42743;DHT22;28397;44.552;-0.848;2023-03-14T05:10:08;10.30;99.90
42743;DHT22;28397;44.552;-0.848;2023-03-14T05:12:35;10.40;99.90
42743;DHT22;28397;44.552;-0.848;2023-03-14T05:15:00;10.40;99.90
42743;DHT22;28397;44.552;-0.848;2023-03-14T05:17:26;10.40;99.90
42743;DHT22;28397;44.552;-0.848;2023-03-14T05:19:52;10.50;99.90
42743;DHT22;28397;44.552;-0.848;2023-03-14T05:22:17;10.60;99.90
42743;DHT22;28397;44.552;-0.848;2023-03-14T05:24:43;10.70;99.90
42743;DHT22;28397;44.552;-0.848;2023-03-14T05:27:09;10.80;99.90
42743;DHT22;28397;44.552;-0.848;2023-03-14T05:29:34;10.70;99.90
42743;DHT22;28397;44.552;-0.848;2023-03-14T05:32:00;10.70;99.90
42743;DHT22;28397;44.552;-0.848;2023-03-14T05:34:26;10.70;99.90
42743;DHT22;28397;44.552;-0.848;2023-03-14T05:36:52;10.60;99.90
42743;DHT22;28397;44.552;-0.848;2023-03-14T05:39:17;10.60;99.90
42743;DHT22;28397;44.552;-0.848;2023-03-14T05:41:43;10.50;99.90
42743;DHT22;28397;44.552;-0.848;2023-03-14T05:44:09;10.60;99.90
42743;DHT22;28397;44.552;-0.848;2023-03-14T05:46:34;10.70;99.90
42743;DHT22;28397;44.552;-0.848;2023-03-14T05:49:00;10.80;99.90
42743;DHT22;28397;44.552;-0.848;2023-03-14T05:51:26;10.60;99.90
42743;DHT22;28397;44.552;-0.848;2023-03-14T05:53:52;10.70;99.90
42743;DHT22;28397;44.552;-0.848;2023-03-14T05:56:18;10.80;99.90
42743;DHT22;28397;44.552;-0.848;2023-03-14T05:58:44;10.90;99.90
42743;DHT22;28397;44.552;-0.848;2023-03-14T06:01:09;11.00;99.90
42743;DHT22;28397;44.552;-0.848;2023-03-14T06:03:35;11.00;99.90
42743;DHT22;28397;44.552;-0.848;2023-03-14T06:06:01;11.00;99.90
42743;DHT22;28397;44.552;-0.848;2023-03-14T06:08:27;11.00;99.90
42743;DHT22;28397;44.552;-0.848;2023-03-14T06:10:53;11.10;99.90
42743;DHT22;28397;44.552;-0.848;2023-03-14T06:13:20;11.20;99.90
42743;DHT22;28397;44.552;-0.848;2023-03-14T06:15:46;11.10;99.90
42743;DHT22;28397;44.552;-0.848;2023-03-14T06:18:12;10.90;99.90
42743;DHT22;28397;44.552;-0.848;2023-03-14T06:20:40;10.90;99.90
42743;DHT22;28397;44.552;-0.848;2023-03-14T06:23:08;10.80;99.90
42743;DHT22;28397;44.552;-0.848;2023-03-14T06:25:35;10.60;99.90
42743;DHT22;28397;44.552;-0.848;2023-03-14T06:28:01;10.40;99.90
42743;DHT22;28397;44.552;-0.848;2023-03-14T06:30:27;10.20;99.90
42743;DHT22;28397;44.552;-0.848;2023-03-14T06:32:53;10.10;99.90
42743;DHT22;28397;44.552;-0.848;2023-03-14T06:35:19;10.00;99.90
42743;DHT22;28397;44.552;-0.848;2023-03-14T06:37:45;10.00;99.90
42743;DHT22;28397;44.552;-0.848;2023-03-14T06:40:11;9.70;99.90
42743;DHT22;28397;44.552;-0.848;2023-03-14T06:42:42;9.80;99.90
42743;DHT22;28397;44.552;-0.848;2023-03-14T06:45:08;9.70;99.90
42743;DHT22;28397;44.552;-0.848;2023-03-14T06:47:34;9.60;99.90
42743;DHT22;28397;44.552;-0.848;2023-03-14T06:50:00;9.60;99.90
42743;DHT22;28397;44.552;-0.848;2023-03-14T06:52:25;9.60;99.90
42743;DHT22;28397;44.552;-0.848;2023-03-14T06:54:51;9.80;99.90
42743;DHT22;28397;44.552;-0.848;2023-03-14T06:57:17;10.20;99.90
42743;DHT22;28397;44.552;-0.848;2023-03-14T06:59:42;11.30;99.90
42743;DHT22;28397;44.552;-0.848;2023-03-14T07:02:11;11.50;99.90
42743;DHT22;28397;44.552;-0.848;2023-03-14T07:04:37;11.90;99.90
42743;DHT22;28397;44.552;-0.848;2023-03-14T07:07:03;12.50;99.90
42743;DHT22;28397;44.552;-0.848;2023-03-14T07:09:29;13.40;99.90
42743;DHT22;28397;44.552;-0.848;2023-03-14T07:11:55;14.10;99.90
42743;DHT22;28397;44.552;-0.848;2023-03-14T07:14:20;15.00;99.90
42743;DHT22;28397;44.552;-0.848;2023-03-14T07:16:46;16.70;99.90
42743;DHT22;28397;44.552;-0.848;2023-03-14T07:19:12;17.20;99.90
42743;DHT22;28397;44.552;-0.848;2023-03-14T07:21:37;17.70;99.90
42743;DHT22;28397;44.552;-0.848;2023-03-14T07:24:03;16.60;99.90
42743;DHT22;28397;44.552;-0.848;2023-03-14T07:26:29;13.90;99.90
42743;DHT22;28397;44.552;-0.848;2023-03-14T07:28:54;11.90;99.90
42743;DHT22;28397;44.552;-0.848;2023-03-14T07:31:20;11.30;99.90
42743;DHT22;28397;44.552;-0.848;2023-03-14T07:33:46;11.00;99.90
42743;DHT22;28397;44.552;-0.848;2023-03-14T07:36:12;10.80;99.90
42743;DHT22;28397;44.552;-0.848;2023-03-14T07:38:38;10.70;99.90
42743;DHT22;28397;44.552;-0.848;2023-03-14T07:41:05;10.60;99.90
42743;DHT22;28397;44.552;-0.848;2023-03-14T07:43:32;11.00;99.90
42743;DHT22;28397;44.552;-0.848;2023-03-14T07:45:58;14.50;99.90
42743;DHT22;28397;44.552;-0.848;2023-03-14T07:48:24;17.70;99.90
42743;DHT22;28397;44.552;-0.848;2023-03-14T07:50:54;20.70;99.90
42743;DHT22;28397;44.552;-0.848;2023-03-14T07:53:21;20.30;99.90
42743;DHT22;28397;44.552;-0.848;2023-03-14T07:55:47;16.50;99.90
42743;DHT22;28397;44.552;-0.848;2023-03-14T07:58:13;14.00;99.90
42743;DHT22;28397;44.552;-0.848;2023-03-14T08:00:39;13.00;99.90
42743;DHT22;28397;44.552;-0.848;2023-03-14T08:03:05;12.80;99.90
42743;DHT22;28397;44.552;-0.848;2023-03-14T08:05:30;12.20;99.90
42743;DHT22;28397;44.552;-0.848;2023-03-14T08:07:56;11.50;99.90
42743;DHT22;28397;44.552;-0.848;2023-03-14T08:10:22;11.40;99.90
42743;DHT22;28397;44.552;-0.848;2023-03-14T08:12:55;11.10;99.90
42743;DHT22;28397;44.552;-0.848;2023-03-14T08:15:22;11.60;99.90
42743;DHT22;28397;44.552;-0.848;2023-03-14T08:17:48;11.50;99.90
42743;DHT22;28397;44.552;-0.848;2023-03-14T08:20:18;11.30;99.90
42743;DHT22;28397;44.552;-0.848;2023-03-14T08:22:44;11.70;99.90
42743;DHT22;28397;44.552;-0.848;2023-03-14T08:25:10;12.80;99.90
42743;DHT22;28397;44.552;-0.848;2023-03-14T08:27:36;18.60;99.90
42743;DHT22;28397;44.552;-0.848;2023-03-14T08:30:05;22.70;99.90
42743;DHT22;28397;44.552;-0.848;2023-03-14T08:32:31;23.40;99.90
42743;DHT22;28397;44.552;-0.848;2023-03-14T08:34:57;23.90;99.90
42743;DHT22;28397;44.552;-0.848;2023-03-14T08:37:23;26.30;99.90
42743;DHT22;28397;44.552;-0.848;2023-03-14T08:39:50;29.00;99.90
42743;DHT22;28397;44.552;-0.848;2023-03-14T08:42:17;27.60;99.90
42743;DHT22;28397;44.552;-0.848;2023-03-14T08:44:42;27.60;99.90
42743;DHT22;28397;44.552;-0.848;2023-03-14T08:47:08;29.60;99.90
42743;DHT22;28397;44.552;-0.848;2023-03-14T08:49:34;30.20;99.90
42743;DHT22;28397;44.552;-0.848;2023-03-14T08:52:04;29.40;99.90
42743;DHT22;28397;44.552;-0.848;2023-03-14T08:54:31;30.80;99.90
42743;DHT22;28397;44.552;-0.848;2023-03-14T08:56:57;29.80;99.90
42743;DHT22;28397;44.552;-0.848;2023-03-14T08:59:23;29.40;99.90
42743;DHT22;28397;44.552;-0.848;2023-03-14T09:01:49;23.10;99.90
42743;DHT22;28397;44.552;-0.848;2023-03-14T09:04:15;21.70;99.90
42743;DHT22;28397;44.552;-0.848;2023-03-14T09:06:41;20.60;99.90
42743;DHT22;28397;44.552;-0.848;2023-03-14T09:09:07;19.00;99.90
42743;DHT22;28397;44.552;-0.848;2023-03-14T09:11:33;17.80;99.90
42743;DHT22;28397;44.552;-0.848;2023-03-14T09:13:59;17.40;99.90
42743;DHT22;28397;44.552;-0.848;2023-03-14T09:16:24;17.30;99.90
42743;DHT22;28397;44.552;-0.848;2023-03-14T09:18:50;16.80;99.90
42743;DHT22;28397;44.552;-0.848;2023-03-14T09:21:20;15.90;99.90
42743;DHT22;28397;44.552;-0.848;2023-03-14T09:23:46;15.50;99.90
42743;DHT22;28397;44.552;-0.848;2023-03-14T09:26:12;15.70;99.90
42743;DHT22;28397;44.552;-0.848;2023-03-14T09:28:38;16.50;99.90
42743;DHT22;28397;44.552;-0.848;2023-03-14T09:31:15;16.10;99.90
42743;DHT22;28397;44.552;-0.848;2023-03-14T09:33:41;16.10;99.90
42743;DHT22;28397;44.552;-0.848;2023-03-14T09:36:07;15.40;99.90
42743;DHT22;28397;44.552;-0.848;2023-03-14T09:38:34;15.50;99.90
42743;DHT22;28397;44.552;-0.848;2023-03-14T09:41:01;21.30;99.90
42743;DHT22;28397;44.552;-0.848;2023-03-14T09:43:33;23.20;99.90
42743;DHT22;28397;44.552;-0.848;2023-03-14T09:46:01;22.20;99.90
42743;DHT22;28397;44.552;-0.848;2023-03-14T09:48:31;24.20;99.90
42743;DHT22;28397;44.552;-0.848;2023-03-14T09:51:00;23.80;99.90
42743;DHT22;28397;44.552;-0.848;2023-03-14T09:53:40;22.20;99.90
42743;DHT22;28397;44.552;-0.848;2023-03-14T09:56:27;22.30;99.90
42743;DHT22;28397;44.552;-0.848;2023-03-14T09:59:00;22.00;99.90
42743;DHT22;28397;44.552;-0.848;2023-03-14T10:01:31;21.50;99.90
42743;DHT22;28397;44.552;-0.848;2023-03-14T10:04:00;19.80;99.90
42743;DHT22;28397;44.552;-0.848;2023-03-14T10:06:29;19.20;99.90
42743;DHT22;28397;44.552;-0.848;2023-03-14T10:08:56;18.80;99.90
42743;DHT22;28397;44.552;-0.848;2023-03-14T10:11:23;18.10;99.90
42743;DHT22;28397;44.552;-0.848;2023-03-14T10:14:02;19.20;99.90
42743;DHT22;28397;44.552;-0.848;2023-03-14T10:16:31;17.80;99.90
42743;DHT22;28397;44.552;-0.848;2023-03-14T10:19:13;18.60;99.90
42743;DHT22;28397;44.552;-0.848;2023-03-14T10:21:42;19.90;99.90
42743;DHT22;28397;44.552;-0.848;2023-03-14T10:24:30;20.10;99.90
42743;DHT22;28397;44.552;-0.848;2023-03-14T10:27:04;18.10;99.90
42743;DHT22;28397;44.552;-0.848;2023-03-14T10:29:32;17.70;99.90
42743;DHT22;28397;44.552;-0.848;2023-03-14T10:32:06;18.60;99.90
42743;DHT22;28397;44.552;-0.848;2023-03-14T10:34:36;17.70;99.90
42743;DHT22;28397;44.552;-0.848;2023-03-14T10:44:43;15.10;99.90
42743;DHT22;28397;44.552;-0.848;2023-03-14T10:47:21;15.10;99.90
42743;DHT22;28397;44.552;-0.848;2023-03-14T10:49:47;15.20;99.90
42743;DHT22;28397;44.552;-0.848;2023-03-14T10:52:18;15.60;99.90
42743;DHT22;28397;44.552;-0.848;2023-03-14T10:54:47;15.50;99.90
42743;DHT22;28397;44.552;-0.848;2023-03-14T10:57:14;15.10;99.90
42743;DHT22;28397;44.552;-0.848;2023-03-14T10:59:42;14.70;99.90
42743;DHT22;28397;44.552;-0.848;2023-03-14T11:10:48;16.40;99.90
42743;DHT22;28397;44.552;-0.848;2023-03-14T11:13:24;16.20;99.90
42743;DHT22;28397;44.552;-0.848;2023-03-14T11:29:55;17.00;99.90
42743;DHT22;28397;44.552;-0.848;2023-03-14T11:35:14;17.60;99.90
42743;DHT22;28397;44.552;-0.848;2023-03-14T11:37:47;17.30;99.90
42743;DHT22;28397;44.552;-0.848;2023-03-14T11:40:23;16.60;99.90
42743;DHT22;28397;44.552;-0.848;2023-03-14T11:45:30;16.40;99.90
42743;DHT22;28397;44.552;-0.848;2023-03-14T11:50:34;14.70;99.90
42743;DHT22;28397;44.552;-0.848;2023-03-14T11:53:07;15.10;99.90
42743;DHT22;28397;44.552;-0.848;2023-03-14T11:55:37;16.00;99.90
42743;DHT22;28397;44.552;-0.848;2023-03-14T12:00:50;16.40;99.90
42743;DHT22;28397;44.552;-0.848;2023-03-14T12:03:33;16.80;99.90
42743;DHT22;28397;44.552;-0.848;2023-03-14T12:08:48;16.60;99.90
42743;DHT22;28397;44.552;-0.848;2023-03-14T12:11:19;16.90;99.90
42743;DHT22;28397;44.552;-0.848;2023-03-14T12:13:49;16.80;99.90
42743;DHT22;28397;44.552;-0.848;2023-03-14T12:18:50;17.60;99.90
42743;DHT22;28397;44.552;-0.848;2023-03-14T12:21:17;18.00;99.90
42743;DHT22;28397;44.552;-0.848;2023-03-14T12:23:52;18.40;99.90
42743;DHT22;28397;44.552;-0.848;2023-03-14T12:26:24;17.40;99.90
42743;DHT22;28397;44.552;-0.848;2023-03-14T12:42:14;15.20;99.90
42743;DHT22;28397;44.552;-0.848;2023-03-14T12:44:48;15.70;99.90
42743;DHT22;28397;44.552;-0.848;2023-03-14T12:49:42;15.90;99.90
42743;DHT22;28397;44.552;-0.848;2023-03-14T12:52:16;15.90;99.90
42743;DHT22;28397;44.552;-0.848;2023-03-14T12:55:15;15.20;99.90
42743;DHT22;28397;44.552;-0.848;2023-03-14T12:58:24;14.80;99.90
42743;DHT22;28397;44.552;-0.848;2023-03-14T13:00:56;14.90;99.90
42743;DHT22;28397;44.552;-0.848;2023-03-14T13:03:25;15.50;99.90
42743;DHT22;28397;44.552;-0.848;2023-03-14T13:05:59;15.30;99.90
42743;DHT22;28397;44.552;-0.848;2023-03-14T13:08:42;15.40;99.90
42743;DHT22;28397;44.552;-0.848;2023-03-14T13:11:10;15.80;99.90
42743;DHT22;28397;44.552;-0.848;2023-03-14T13:13:42;15.70;99.90
42743;DHT22;28397;44.552;-0.848;2023-03-14T13:16:15;15.20;99.90
42743;DHT22;28397;44.552;-0.848;2023-03-14T13:19:44;15.40;99.90
42743;DHT22;28397;44.552;-0.848;2023-03-14T13:21:50;15.50;99.90
42743;DHT22;28397;44.552;-0.848;2023-03-14T13:24:25;14.70;99.90
42743;DHT22;28397;44.552;-0.848;2023-03-14T13:26:55;14.70;99.90
42743;DHT22;28397;44.552;-0.848;2023-03-14T13:29:32;14.60;99.90
42743;DHT22;28397;44.552;-0.848;2023-03-14T13:32:10;14.60;99.90
42743;DHT22;28397;44.552;-0.848;2023-03-14T13:34:38;14.60;99.90
42743;DHT22;28397;44.552;-0.848;2023-03-14T13:37:04;14.60;99.90
42743;DHT22;28397;44.552;-0.848;2023-03-14T13:39:30;14.80;99.90
42743;DHT22;28397;44.552;-0.848;2023-03-14T13:42:01;15.20;99.90
42743;DHT22;28397;44.552;-0.848;2023-03-14T13:44:33;14.80;99.90
42743;DHT22;28397;44.552;-0.848;2023-03-14T13:47:04;14.90;99.90
42743;DHT22;28397;44.552;-0.848;2023-03-14T13:49:32;15.20;99.90
42743;DHT22;28397;44.552;-0.848;2023-03-14T13:52:01;15.30;99.90
42743;DHT22;28397;44.552;-0.848;2023-03-14T13:54:27;15.30;99.90
42743;DHT22;28397;44.552;-0.848;2023-03-14T13:57:05;14.90;99.90
42743;DHT22;28397;44.552;-0.848;2023-03-14T13:59:33;14.60;99.90
42743;DHT22;28397;44.552;-0.848;2023-03-14T14:02:03;14.50;99.90
42743;DHT22;28397;44.552;-0.848;2023-03-14T14:04:33;14.90;99.90
42743;DHT22;28397;44.552;-0.848;2023-03-14T14:07:05;14.80;99.90
42743;DHT22;28397;44.552;-0.848;2023-03-14T14:09:40;14.80;99.90
42743;DHT22;28397;44.552;-0.848;2023-03-14T14:12:17;15.00;99.90
42743;DHT22;28397;44.552;-0.848;2023-03-14T14:14:54;15.40;99.90
42743;DHT22;28397;44.552;-0.848;2023-03-14T14:17:26;15.00;99.90
42743;DHT22;28397;44.552;-0.848;2023-03-14T14:19:53;14.70;99.90
42743;DHT22;28397;44.552;-0.848;2023-03-14T14:22:21;14.60;99.90
42743;DHT22;28397;44.552;-0.848;2023-03-14T14:24:48;15.30;99.90
42743;DHT22;28397;44.552;-0.848;2023-03-14T14:27:20;15.00;99.90
42743;DHT22;28397;44.552;-0.848;2023-03-14T14:30:01;15.10;99.90
42743;DHT22;28397;44.552;-0.848;2023-03-14T14:32:27;15.40;99.90
42743;DHT22;28397;44.552;-0.848;2023-03-14T14:35:00;15.20;99.90
42743;DHT22;28397;44.552;-0.848;2023-03-14T14:37:28;15.30;99.90
42743;DHT22;28397;44.552;-0.848;2023-03-14T14:39:57;15.00;99.90
42743;DHT22;28397;44.552;-0.848;2023-03-14T14:42:29;15.60;99.90
42743;DHT22;28397;44.552;-0.848;2023-03-14T14:44:57;14.80;99.90
42743;DHT22;28397;44.552;-0.848;2023-03-14T14:47:24;14.50;99.90
42743;DHT22;28397;44.552;-0.848;2023-03-14T14:49:53;14.80;99.90
42743;DHT22;28397;44.552;-0.848;2023-03-14T14:52:39;14.40;99.90
42743;DHT22;28397;44.552;-0.848;2023-03-14T14:55:29;14.90;99.90
42743;DHT22;28397;44.552;-0.848;2023-03-14T14:57:55;15.00;99.90
42743;DHT22;28397;44.552;-0.848;2023-03-14T15:00:26;14.60;99.90
42743;DHT22;28397;44.552;-0.848;2023-03-14T15:03:02;14.60;99.90
42743;DHT22;28397;44.552;-0.848;2023-03-14T15:05:28;14.50;99.90
42743;DHT22;28397;44.552;-0.848;2023-03-14T15:08:01;14.90;99.90
42743;DHT22;28397;44.552;-0.848;2023-03-14T15:10:27;15.00;99.90
42743;DHT22;28397;44.552;-0.848;2023-03-14T15:12:53;15.40;99.90
42743;DHT22;28397;44.552;-0.848;2023-03-14T15:15:18;15.10;99.90
42743;DHT22;28397;44.552;-0.848;2023-03-14T15:17:44;15.00;99.90
42743;DHT22;28397;44.552;-0.848;2023-03-14T15:20:12;14.90;99.90
42743;DHT22;28397;44.552;-0.848;2023-03-14T15:22:39;15.00;99.90
42743;DHT22;28397;44.552;-0.848;2023-03-14T15:25:06;14.90;99.90
42743;DHT22;28397;44.552;-0.848;2023-03-14T15:27:32;15.00;99.90
42743;DHT22;28397;44.552;-0.848;2023-03-14T15:29:58;14.60;99.90
42743;DHT22;28397;44.552;-0.848;2023-03-14T15:32:24;15.00;99.90
42743;DHT22;28397;44.552;-0.848;2023-03-14T15:34:53;15.20;99.90
42743;DHT22;28397;44.552;-0.848;2023-03-14T15:37:19;15.00;99.90
42743;DHT22;28397;44.552;-0.848;2023-03-14T15:39:45;15.20;99.90
42743;DHT22;28397;44.552;-0.848;2023-03-14T15:42:11;15.10;99.90
42743;DHT22;28397;44.552;-0.848;2023-03-14T15:44:37;14.70;99.90
42743;DHT22;28397;44.552;-0.848;2023-03-14T15:47:04;15.20;99.90
42743;DHT22;28397;44.552;-0.848;2023-03-14T15:49:31;15.50;99.90
42743;DHT22;28397;44.552;-0.848;2023-03-14T15:51:58;14.70;99.90
42743;DHT22;28397;44.552;-0.848;2023-03-14T15:54:24;14.50;99.90
42743;DHT22;28397;44.552;-0.848;2023-03-14T15:56:57;14.60;99.90
42743;DHT22;28397;44.552;-0.848;2023-03-14T15:59:23;14.20;99.90
42743;DHT22;28397;44.552;-0.848;2023-03-14T16:01:49;14.10;99.90
42743;DHT22;28397;44.552;-0.848;2023-03-14T16:04:15;14.10;99.90
42743;DHT22;28397;44.552;-0.848;2023-03-14T16:06:41;13.70;99.90
42743;DHT22;28397;44.552;-0.848;2023-03-14T16:09:09;14.00;99.90
42743;DHT22;28397;44.552;-0.848;2023-03-14T16:11:34;14.00;99.90
42743;DHT22;28397;44.552;-0.848;2023-03-14T16:14:00;13.40;99.90
42743;DHT22;28397;44.552;-0.848;2023-03-14T16:16:26;13.10;99.90
42743;DHT22;28397;44.552;-0.848;2023-03-14T16:18:51;13.20;99.90
42743;DHT22;28397;44.552;-0.848;2023-03-14T16:21:19;13.10;99.90
42743;DHT22;28397;44.552;-0.848;2023-03-14T16:23:45;13.10;99.90
42743;DHT22;28397;44.552;-0.848;2023-03-14T16:26:16;13.20;99.90
42743;DHT22;28397;44.552;-0.848;2023-03-14T16:28:43;12.90;99.90
42743;DHT22;28397;44.552;-0.848;2023-03-14T16:31:12;13.00;99.90
42743;DHT22;28397;44.552;-0.848;2023-03-14T16:33:38;12.90;99.90
42743;DHT22;28397;44.552;-0.848;2023-03-14T16:36:06;13.10;99.90
42743;DHT22;28397;44.552;-0.848;2023-03-14T16:38:37;12.90;99.90
42743;DHT22;28397;44.552;-0.848;2023-03-14T16:41:06;12.50;99.90